X Fechar
foto

X Fechar
foto
Clique e saiba mais
Clique e saiba mais
Clique e saiba mais
Clique e saiba mais
Clique e saiba mais
Clique e saiba mais

Edgers Racing

KTM Sacramento

Toro Sports

SP Race Park

JPS Racing

MotoX Pneus

Clique e saiba mais

> Notícias > Últimas Notícias

MXGP da Itália: Melhores momentos e resultados das classificatórias em Ímola
Publicado em: 17/08/2019

Líderes do campeonato vencem baterias de sábado na 15ª etapa do Mundial de Motocross 2019
Redação MotoX.com.br - Fotos: Youthstream

Tim Gajser (MXGP) e Jorge Prado (MX2) terão prioridade na escolha do gate neste domingo


Tim Gajser

Tim Gajser (Team HRC) venceu a classifcatória da classe MXGP na 15ª etapa do Mundial de Motocross 2019 neste sábado em Ímola, Itália. O esloveno teve uma boa batalha com Romain Febvre (Monster Energy Wilvo Yamaha) com várias trocas na liderança até o francês cometer um erro e depois perder posições para terminar em quarto. Glenn Coldenhoff e Ivo Monticelli, dupla da equipe Standing Construct KTM, fechou a prova em segundo e terceiro, respectivamente.

"Estou muito feliz com minha corrida classificatória, estava me sentindo muito bem, a pista estava destruída e gostei. Tive uma boa batalha com Romain (Febvre), e gostei porque foi limpa, e estou ansioso para amanhã. Vai ser um dia especial", comentou o esloveno que tem tudo para confirmar já neste domingo o terceiro título mundial da carreira, o segundo na classe principal.


Jorge Prado

Jorge Prado (Red Bull KTM Factory Racing) dominou a corrida da MX2. O espanhol liderou todas as voltas seguido por Henry Jacobi, da F & H Kawasaki Racing. Thomas Kjer Olsen (Rockstar Energy Husqvarna) teve mais trabalho para avançar no pelotão da oitava posição na primeira volta para a terceira na bandeirada. O brasileiro Gustavo Pessoa (Bike It DRT Kawasaki) fechou o dia na 26ª colocação avançando duas posições em relação à primeira volta.

Vídeos:





Resultados

P # MXGP País Bike Time V Diff Gap M.V. Speed
1 243 Gajser, Tim SLO Hon 24:46.048 14 0:00.000 0:00.000 1:37.904 55.1
2 259 Coldenhoff, Glenn NED KTM 24:49.701 14 0:03.653 0:03.653 1:37.429 55.4
3 128 Monticelli, Ivo ITA KTM 24:51.444 14 0:05.396 0:01.743 1:38.017 55
4 461 Febvre, Romain FRA Yam 24:52.839 14 0:06.791 0:01.395 1:38.106 55
5 91 Seewer, Jeremy SUI Yam 24:55.679 14 0:09.631 0:02.840 1:37.408 55.4
6 21 Paulin, Gautier FRA Yam 24:57.649 14 0:11.601 0:01.970 1:38.256 54.9
7 99 Anstie, Max GBR KTM 25:11.273 14 0:25.225 0:13.624 1:37.702 55.2
8 41 Jonass, Pauls LAT Hus 25:13.315 14 0:27.267 0:02.042 1:38.987 54.5
9 100 Searle, Tommy GBR Kaw 25:14.272 14 0:28.224 0:00.957 1:38.192 54.9
10 89 Van Horebeek, Jeremy BEL Hon 25:15.035 14 0:28.987 0:00.763 1:38.166 55
11 4 Tonus, Arnaud SUI Yam 25:16.069 14 0:30.021 0:01.034 1:38.635 54.7
12 911 Tixier, Jordi FRA KTM 25:18.504 14 0:32.456 0:02.435 1:39.251 54.4
13 189 Bogers, Brian NED Hon 25:31.994 14 0:45.946 0:13.490 1:39.730 54.1
14 18 Brylyakov, Vsevolod RUS Yam 25:34.531 14 0:48.483 0:02.537 1:40.564 53.6
15 24 Simpson, Shaun GBR KTM 25:38.675 14 0:52.627 0:04.144 1:40.785 53.5
16 7 Leok, Tanel EST Hus 25:45.190 14 0:59.142 0:06.515 1:40.426 53.7
17 127 Rodriguez, Anthony VEN Yam 25:47.881 14 1:01.833 0:02.691 1:40.561 53.6
18 152 Petrov, Petar BUL KTM 25:56.599 14 1:10.551 0:08.718 1:41.025 53.4
19 297 Gole, Anton SWE Yam 26:00.565 14 1:14.517 0:03.966 1:41.845 53
20 34 De Waal, Micha-Boy NED Yam 26:06.106 14 1:20.058 0:05.541 1:40.775 53.5
21 226 Koch, Tom GER KTM 26:08.116 14 1:22.068 0:02.010 1:41.940 52.9
22 27 Jasikonis, Arminas LTU Hus 26:13.509 14 1:27.461 0:05.393 1:39.577 54.2
23 62 Gercar, Klemen SLO Hus 26:20.133 14 1:34.085 0:06.624 1:42.769 52.5
24 321 Bernardini, Samuele ITA Yam 25:02.298 13 1 lap 1 lap 1:42.076 52.9
25 471 Tarasov, Volodymyr UKR KTM 25:09.073 13 1 lap 0:06.775 1:44.563 51.6
26 267 Bersanelli, Edoardo ITA Yam 26:00.261 13 1 lap 0:51.188 1:45.553 51.1
27 77 Lupino, Alessandro ITA Kaw 12:05.602 6 8 laps 7 laps 1:39.953 54
28 22 Strijbos, Kevin BEL Yam 10:23.371 5 9 laps 1 lap 1:40.340 53.8
29 555 Guryev, Artem RUS Hus 7:19.418 3 11 laps 2 laps 1:45.864 51
 

P # MX2 País Bike Time V Diff Gap M.V. Speed
1 61 Prado, Jorge ESP KTM 23:30.524 13 0:00.000 0:00.000 1:38.703 54.7
2 29 Jacobi, Henry GER Kaw 23:45.824 13 0:15.300 0:15.300 1:40.409 53.7
3 19 Olsen, Thomas Kjer DEN Hus 23:47.741 13 0:17.217 0:01.917 1:40.106 53.9
4 57 Sanayei, Darian USA Kaw 23:50.164 13 0:19.640 0:02.423 1:40.957 53.4
5 28 Vialle, Tom FRA KTM 23:51.737 13 0:21.213 0:01.573 1:40.009 53.9
6 10 Vlaanderen, Calvin NED Hon 23:52.782 13 0:22.258 0:01.045 1:40.444 53.7
7 211 Lapucci, Nicholas ITA KTM 23:55.595 13 0:25.071 0:02.813 1:41.501 53.2
8 959 Renaux, Maxime FRA Yam 23:56.433 13 0:25.909 0:00.838 1:40.733 53.6
9 193 Geerts, Jago BEL Yam 23:57.554 13 0:27.030 0:01.121 1:40.945 53.4
10 919 Watson, Ben GBR Yam 23:58.193 13 0:27.669 0:00.639 1:40.954 53.4
11 172 Boisrame, Mathys FRA Hon 24:09.306 13 0:38.782 0:11.113 1:41.632 53.1
12 811 Sterry, Adam GBR Kaw 24:11.399 13 0:40.875 0:02.093 1:41.763 53
13 711 Hofer, Rene AUT KTM 24:15.476 13 0:44.952 0:04.077 1:41.920 52.9
14 104 Sydow, Jeremy GER Hus 24:17.818 13 0:47.294 0:02.342 1:41.021 53.4
15 32 Van doninck, Brent BEL Hon 24:18.606 13 0:48.082 0:00.788 1:41.822 53
16 225 Strubhart Moreau, Brian FRA Kaw 24:25.495 13 0:54.971 0:06.889 1:41.824 53
17 102 Sikyna, Richard SVK KTM 24:29.687 13 0:59.163 0:04.192 1:42.955 52.4
18 44 Lesiardo, Morgan ITA KTM 24:30.164 13 0:59.640 0:00.477 1:43.041 52.4
19 161 Östlund, Alvin SWE Hus 24:41.807 13 1:11.283 0:11.643 1:42.918 52.4
20 66 Larranaga Olano, Iker ESP KTM 24:46.830 13 1:16.306 0:05.023 1:42.729 52.5
21 253 Pancar, Jan SLO Yam 24:49.646 13 1:19.122 0:02.816 1:43.659 52
22 43 Evans, Mitchell AUS Hon 24:52.565 13 1:22.041 0:02.919 1:42.959 52.4
23 35 Harrison, Mitchell USA Kaw 24:56.950 13 1:26.426 0:04.385 1:43.278 52.2
24 105 Genot, Cyril BEL KTM 25:05.171 13 1:34.647 0:08.221 1:45.091 51.3
25 313 Polak, Petr CZE KTM 25:08.339 13 1:37.815 0:03.168 1:45.815 51
26 56 Pessoa, Gustavo BRA Kaw 25:10.142 13 1:39.618 0:01.803 1:45.441 51.2
27 368 Olsson, Filip SWE Hus 23:31.063 12 1 lap 1 lap 1:45.337 51.2
28 101 Pichon, Zachary FRA Hon 23:32.726 12 1 lap 0:01.663 1:42.584 52.6
29 117 Manucci, Alessandro ITA Hus 23:33.510 12 1 lap 0:00.784 1:45.290 51.2
30 766 Sandner, Michael AUT KTM 23:53.092 12 1 lap 0:19.582 1:44.991 51.4
31 67 Grimshaw, Tom GBR Yam 24:03.837 12 1 lap 0:10.745 1:47.636 50.1
32 332 Conijn, Marcel NED Kaw 24:16.273 12 1 lap 0:12.436 1:45.281 51.2
33 80 Adamo, Andrea ITA Yam 24:38.003 12 1 lap 0:21.730 1:44.583 51.6
34 783 Toriani, Enzo FRA Hus 16:19.331 8 5 laps 4 laps 1:44.772 51.5
35 53 Walsh, Dylan NZL Hus 12:24.129 6 7 laps 2 laps 1:42.387 52.7
36 275 Furbetta, Joakin ITA Hus 10:40.499 5 8 laps 1 lap 1:44.649 51.6
37 485 Savaste, Kim FIN KTM 6:04.442 2 11 laps 3 laps 1:48.655 49.6







© 2000 - 2018 MotoX MX1 Internet